createdAt,value
2019-03-01T00:00:40.523Z,78.77
2019-03-01T00:01:40.496Z,79.18
2019-03-01T00:02:40.488Z,78.87
2019-03-01T00:03:40.467Z,78.97
2019-03-01T00:04:40.452Z,78.87
2019-03-01T00:05:40.455Z,79.69
2019-03-01T00:06:40.432Z,79.49
2019-03-01T00:07:40.433Z,79.38
2019-03-01T00:08:40.407Z,79.08
2019-03-01T00:09:40.398Z,79.49
2019-03-01T00:10:40.402Z,79.38
2019-03-01T00:11:40.375Z,79.69
2019-03-01T00:12:40.377Z,79.14
2019-03-01T00:13:40.349Z,79.38
2019-03-01T00:14:40.339Z,79.38
2019-03-01T00:15:40.370Z,79.18
2019-03-01T00:16:40.322Z,79.38
2019-03-01T00:17:40.316Z,79.69
2019-03-01T00:18:40.301Z,79.69
2019-03-01T00:19:40.284Z,79.35
2019-03-01T00:20:40.294Z,79.55
2019-03-01T00:21:40.292Z,79.55
2019-03-01T00:22:40.251Z,79.66
2019-03-01T00:23:40.248Z,78.94
2019-03-01T00:24:40.257Z,78.94
2019-03-01T00:25:40.221Z,78.94
2019-03-01T00:26:40.237Z,79.04
2019-03-01T00:27:40.202Z,78.83
2019-03-01T00:28:40.207Z,78.59
2019-03-01T00:29:40.184Z,78.74
2019-03-01T00:30:40.177Z,78.94
2019-03-01T00:31:40.185Z,78.80
2019-03-01T00:32:40.153Z,78.59
2019-03-01T00:33:40.166Z,78.90
2019-03-01T00:34:40.126Z,78.83
2019-03-01T00:35:40.125Z,79.00
2019-03-01T00:36:40.124Z,78.80
2019-03-01T00:37:40.131Z,78.80
2019-03-01T00:38:40.082Z,78.90
2019-03-01T00:39:40.068Z,79.00
2019-03-01T00:40:40.058Z,78.80
2019-03-01T00:41:40.055Z,79.00
2019-03-01T00:42:40.059Z,79.00
2019-03-01T00:43:40.025Z,79.31
2019-03-01T00:44:40.025Z,79.21
2019-03-01T00:45:40.011Z,79.00
2019-03-01T00:46:39.999Z,79.31
2019-03-01T00:47:40.010Z,79.00
2019-03-01T00:48:39.987Z,78.80
2019-03-01T00:49:39.969Z,78.90
2019-03-01T00:50:39.945Z,78.66
2019-03-01T00:51:39.947Z,78.80
2019-03-01T00:52:39.967Z,79.41
2019-03-01T00:53:39.933Z,79.00
2019-03-01T00:54:39.925Z,79.68
2019-03-01T00:55:39.899Z,79.21
2019-03-01T00:56:39.886Z,79.21
2019-03-01T00:57:39.932Z,79.52
2019-03-01T00:58:39.862Z,79.72
2019-03-01T00:59:39.850Z,79.93
2019-03-01T01:00:39.855Z,79.82
2019-03-01T01:01:39.837Z,79.72
2019-03-01T01:02:39.819Z,79.72
2019-03-01T01:03:39.822Z,80.03
2019-03-01T01:04:39.799Z,80.54
2019-03-01T01:05:39.784Z,80.54
2019-03-01T01:06:39.784Z,80.58
2019-03-01T01:07:39.768Z,81.26
2019-03-01T01:08:39.776Z,81.29
2019-03-01T01:09:39.743Z,82.39
2019-03-01T01:10:39.737Z,82.39
2019-03-01T01:11:39.719Z,81.46
2019-03-01T01:12:39.706Z,82.63
2019-03-01T01:13:39.723Z,82.12
2019-03-01T01:14:39.705Z,82.22
2019-03-01T01:15:39.686Z,82.93
2019-03-01T01:16:39.668Z,81.87
2019-03-01T01:17:39.656Z,82.28
2019-03-01T01:18:39.664Z,82.42
2019-03-01T01:19:39.650Z,82.22
2019-03-01T01:20:39.619Z,82.32
2019-03-01T01:21:39.608Z,82.42
2019-03-01T01:22:39.605Z,82.42
2019-03-01T01:23:39.586Z,82.42
2019-03-01T01:24:39.601Z,82.32
2019-03-01T01:25:39.600Z,82.69
2019-03-01T01:26:39.558Z,82.39
2019-03-01T01:27:41.046Z,82.39
2019-03-01T01:28:39.535Z,81.57
2019-03-01T01:29:39.543Z,82.49
2019-03-01T01:30:39.511Z,82.18
2019-03-01T01:31:39.505Z,81.67
2019-03-01T01:32:39.548Z,82.28
2019-03-01T01:33:39.481Z,82.08
2019-03-01T01:34:39.471Z,81.77
2019-03-01T01:35:39.456Z,82.28
2019-03-01T01:36:39.456Z,81.77
2019-03-01T01:37:39.461Z,81.98
2019-03-01T01:38:39.422Z,82.18
2019-03-01T01:39:39.419Z,80.85
2019-03-01T01:40:39.411Z,80.85
2019-03-01T01:41:39.393Z,81.57
2019-03-01T01:42:39.411Z,81.09
2019-03-01T01:43:39.373Z,81.09
2019-03-01T01:44:39.358Z,80.78
2019-03-01T01:45:39.388Z,80.54
2019-03-01T01:46:39.353Z,79.66
2019-03-01T01:47:39.359Z,80.27
2019-03-01T01:48:39.316Z,80.17
2019-03-01T01:49:39.339Z,79.55
2019-03-01T01:50:39.295Z,79.96
2019-03-01T01:51:39.288Z,80.23
2019-03-01T01:52:39.274Z,79.96
2019-03-01T01:53:39.280Z,79.66
2019-03-01T01:54:39.250Z,79.55
2019-03-01T01:55:39.252Z,79.35
2019-03-01T01:56:39.229Z,79.04
2019-03-01T01:57:39.217Z,79.24
2019-03-01T01:58:39.280Z,79.24
2019-03-01T01:59:39.201Z,79.04
2019-03-01T02:00:39.189Z,79.14
2019-03-01T02:01:39.179Z,78.83
2019-03-01T02:02:39.164Z,79.04
2019-03-01T02:03:39.200Z,78.83
2019-03-01T02:04:39.173Z,79.24
2019-03-01T02:05:39.168Z,78.94
2019-03-01T02:06:39.118Z,78.94
2019-03-01T02:07:39.162Z,78.83
2019-03-01T02:08:39.128Z,78.53
2019-03-01T02:09:39.095Z,78.32
2019-03-01T02:10:39.110Z,78.42
2019-03-01T02:11:39.070Z,77.91
2019-03-01T02:12:39.096Z,77.61
2019-03-01T02:13:39.054Z,77.50
2019-03-01T02:14:39.067Z,77.50
2019-03-01T02:15:39.036Z,78.02
2019-03-01T02:16:39.013Z,77.50
2019-03-01T02:17:39.001Z,77.71
2019-03-01T02:18:39.039Z,77.54
2019-03-01T02:19:38.980Z,77.74
2019-03-01T02:20:38.983Z,77.84
2019-03-01T02:21:38.986Z,77.84
2019-03-01T02:22:38.956Z,77.95
2019-03-01T02:23:40.161Z,77.54
2019-03-01T02:24:38.934Z,77.81
2019-03-01T02:25:38.933Z,77.23
2019-03-01T02:26:38.908Z,77.33
2019-03-01T02:27:38.919Z,77.61
2019-03-01T02:28:38.922Z,77.64
2019-03-01T02:29:38.893Z,77.23
2019-03-01T02:30:38.880Z,76.92
2019-03-01T02:31:38.882Z,76.62
2019-03-01T02:32:38.855Z,77.03
2019-03-01T02:33:38.827Z,77.23
2019-03-01T02:34:38.842Z,77.54
2019-03-01T02:35:38.811Z,77.23
2019-03-01T02:36:38.809Z,76.51
2019-03-01T02:37:38.787Z,77.13
2019-03-01T02:38:38.793Z,77.13
2019-03-01T02:39:38.770Z,76.62
2019-03-01T02:40:38.757Z,76.62
2019-03-01T02:41:38.746Z,76.51
2019-03-01T02:42:38.748Z,76.72
2019-03-01T02:43:38.739Z,76.51
2019-03-01T02:44:38.711Z,76.00
2019-03-01T02:45:38.706Z,76.82
2019-03-01T02:46:38.687Z,77.03
2019-03-01T02:47:38.718Z,76.51
2019-03-01T02:48:38.669Z,76.92
2019-03-01T02:49:38.651Z,76.51
2019-03-01T02:50:38.670Z,76.20
2019-03-01T02:51:38.634Z,76.20
2019-03-01T02:52:38.626Z,76.72
2019-03-01T02:53:38.647Z,76.20
2019-03-01T02:54:38.626Z,76.62
2019-03-01T02:55:38.614Z,75.59
2019-03-01T02:56:38.610Z,76.20
2019-03-01T02:57:38.604Z,76.62
2019-03-01T02:58:38.575Z,76.31
2019-03-01T02:59:38.607Z,75.90
2019-03-01T03:00:38.598Z,76.10
2019-03-01T03:01:38.533Z,76.20
2019-03-01T03:02:38.535Z,76.31
2019-03-01T03:03:38.564Z,75.49
2019-03-01T03:04:38.529Z,75.69
2019-03-01T03:05:38.474Z,75.69
2019-03-01T03:06:38.473Z,75.59
2019-03-01T03:07:38.488Z,75.49
2019-03-01T03:08:38.489Z,75.49
2019-03-01T03:09:38.438Z,75.28
2019-03-01T03:10:38.420Z,75.86
2019-03-01T03:11:38.415Z,75.59
2019-03-01T03:12:38.459Z,75.69
2019-03-01T03:13:38.434Z,75.45
2019-03-01T03:14:38.413Z,75.49
2019-03-01T03:15:38.369Z,75.49
2019-03-01T03:16:38.395Z,75.49
2019-03-01T03:17:38.472Z,75.45
2019-03-01T03:18:38.345Z,75.59
2019-03-01T03:19:38.349Z,75.49
2019-03-01T03:20:38.322Z,75.69
2019-03-01T03:21:38.301Z,75.69
2019-03-01T03:22:38.379Z,75.59
2019-03-01T03:23:38.284Z,75.49
2019-03-01T03:24:38.307Z,75.69
2019-03-01T03:25:38.312Z,74.98
2019-03-01T03:26:38.264Z,75.49
2019-03-01T03:27:38.240Z,75.69
2019-03-01T03:28:38.238Z,75.49
2019-03-01T03:29:38.226Z,75.49
2019-03-01T03:30:38.233Z,75.38
2019-03-01T03:31:38.191Z,75.28
2019-03-01T03:32:38.187Z,75.69
2019-03-01T03:33:38.174Z,75.69
2019-03-01T03:34:38.166Z,75.69
2019-03-01T03:35:38.167Z,75.79
2019-03-01T03:36:38.163Z,75.90
2019-03-01T03:37:38.142Z,76.00
2019-03-01T03:38:38.116Z,75.59
2019-03-01T03:39:38.105Z,75.79
2019-03-01T03:40:38.123Z,75.38
2019-03-01T03:41:38.081Z,75.49
2019-03-01T03:42:38.074Z,75.69
2019-03-01T03:43:38.068Z,75.59
2019-03-01T03:44:38.066Z,75.69
2019-03-01T03:45:38.036Z,75.90
2019-03-01T03:46:38.062Z,75.79
2019-03-01T03:47:38.035Z,75.59
2019-03-01T03:48:38.004Z,75.49
2019-03-01T03:49:38.011Z,75.79
2019-03-01T03:50:37.993Z,75.28
2019-03-01T03:51:37.991Z,75.49
2019-03-01T03:52:37.964Z,75.49
2019-03-01T03:53:37.975Z,75.79
2019-03-01T03:54:38.018Z,75.69
2019-03-01T03:55:37.933Z,75.59
2019-03-01T03:56:37.954Z,75.79
2019-03-01T03:57:37.928Z,75.69
2019-03-01T03:58:37.907Z,75.93
2019-03-01T03:59:37.893Z,76.04
2019-03-01T04:00:37.875Z,75.90
2019-03-01T04:01:37.859Z,75.79
2019-03-01T04:02:37.882Z,76.04
2019-03-01T04:03:37.838Z,76.20
2019-03-01T04:04:37.845Z,76.20
2019-03-01T04:05:37.837Z,76.00
2019-03-01T04:06:37.806Z,75.90
2019-03-01T04:07:37.826Z,76.20
2019-03-01T04:08:37.825Z,76.72
2019-03-01T04:09:37.773Z,76.00
2019-03-01T04:10:37.768Z,76.34
2019-03-01T04:11:37.786Z,76.00
2019-03-01T04:12:37.783Z,76.00
2019-03-01T04:13:37.730Z,76.34
2019-03-01T04:14:37.739Z,76.92
2019-03-01T04:15:37.714Z,76.75
2019-03-01T04:16:37.706Z,76.41
2019-03-01T04:17:37.715Z,76.10
2019-03-01T04:18:37.699Z,76.72
2019-03-01T04:19:37.703Z,76.10
2019-03-01T04:20:37.655Z,76.10
2019-03-01T04:21:37.660Z,76.00
2019-03-01T04:22:37.703Z,76.00
2019-03-01T04:23:37.664Z,76.20
2019-03-01T04:24:37.613Z,76.24
2019-03-01T04:25:37.610Z,76.24
2019-03-01T04:26:37.591Z,76.75
2019-03-01T04:27:37.630Z,76.55
2019-03-01T04:28:37.597Z,76.75
2019-03-01T04:29:37.558Z,76.65
2019-03-01T04:30:37.558Z,76.72
2019-03-01T04:31:37.546Z,76.86
2019-03-01T04:32:37.523Z,77.06
2019-03-01T04:33:37.528Z,77.06
2019-03-01T04:34:37.526Z,77.13
2019-03-01T04:35:37.490Z,77.06
2019-03-01T04:36:37.483Z,76.75
2019-03-01T04:37:37.464Z,76.65
2019-03-01T04:38:37.462Z,77.23
2019-03-01T04:39:37.476Z,77.26
2019-03-01T04:40:37.443Z,77.47
2019-03-01T04:41:37.421Z,76.72
2019-03-01T04:42:37.414Z,77.58
2019-03-01T04:43:37.419Z,77.47
2019-03-01T04:44:37.462Z,77.17
2019-03-01T04:45:37.382Z,77.58
2019-03-01T04:46:37.370Z,77.58
2019-03-01T04:47:37.357Z,77.78
2019-03-01T04:48:37.349Z,77.68
2019-03-01T04:49:37.376Z,77.78
2019-03-01T04:50:37.355Z,77.68
2019-03-01T04:51:40.041Z,77.68
2019-03-01T04:52:37.303Z,77.68
2019-03-01T04:53:37.313Z,77.58
2019-03-01T04:54:37.279Z,77.68
2019-03-01T04:55:37.280Z,78.39
2019-03-01T04:56:37.255Z,77.68
2019-03-01T04:57:37.274Z,77.78
2019-03-01T04:58:37.252Z,78.09
2019-03-01T04:59:37.227Z,78.60
2019-03-01T05:00:37.211Z,78.19
2019-03-01T05:01:37.206Z,78.50
2019-03-01T05:02:37.209Z,77.98
2019-03-01T05:03:37.184Z,77.98
2019-03-01T05:04:37.176Z,78.39
2019-03-01T05:05:37.164Z,78.39
2019-03-01T05:06:37.148Z,78.50
2019-03-01T05:07:37.166Z,78.91
2019-03-01T05:08:37.141Z,78.81
2019-03-01T05:09:37.199Z,78.60
2019-03-01T05:10:37.114Z,78.81
2019-03-01T05:11:37.095Z,79.22
2019-03-01T05:12:37.080Z,78.91
2019-03-01T05:13:37.129Z,78.81
2019-03-01T05:14:37.059Z,78.60
2019-03-01T05:15:37.048Z,78.81
2019-03-01T05:16:37.038Z,79.01
2019-03-01T05:17:37.045Z,78.60
2019-03-01T05:18:37.035Z,78.91
2019-03-01T05:19:37.012Z,79.22
2019-03-01T05:20:37.014Z,79.52
2019-03-01T05:21:36.984Z,79.11
2019-03-01T05:22:36.969Z,78.50
2019-03-01T05:23:36.990Z,79.22
2019-03-01T05:24:36.969Z,79.32
2019-03-01T05:25:36.973Z,79.01
2019-03-01T05:26:36.928Z,79.01
2019-03-01T05:27:36.919Z,79.11
2019-03-01T05:28:36.920Z,79.01
2019-03-01T05:29:36.917Z,79.52
2019-03-01T05:30:36.887Z,79.32
2019-03-01T05:31:36.889Z,79.63
2019-03-01T05:32:36.890Z,79.42
2019-03-01T05:33:36.867Z,79.42
2019-03-01T05:34:36.855Z,79.22
2019-03-01T05:35:36.833Z,79.93
2019-03-01T05:36:36.823Z,79.83
2019-03-01T05:37:36.811Z,79.63
2019-03-01T05:38:36.800Z,79.73
2019-03-01T05:39:36.840Z,79.63
2019-03-01T05:40:36.786Z,79.83
2019-03-01T05:41:36.774Z,79.83
2019-03-01T05:42:36.749Z,79.93
2019-03-01T05:43:36.749Z,79.52
2019-03-01T05:44:36.765Z,79.83
2019-03-01T05:45:36.738Z,79.93
2019-03-01T05:46:36.704Z,79.63
2019-03-01T05:47:36.699Z,79.83
2019-03-01T05:48:36.687Z,79.93
2019-03-01T05:49:36.670Z,79.83
2019-03-01T05:50:36.698Z,79.73
2019-03-01T05:51:36.654Z,79.52
2019-03-01T05:52:36.651Z,79.52
2019-03-01T05:53:36.639Z,79.73
2019-03-01T05:54:36.622Z,79.32
2019-03-01T05:55:36.655Z,79.63
2019-03-01T05:56:36.601Z,79.83
2019-03-01T05:57:36.590Z,79.32
2019-03-01T05:58:36.578Z,79.73
2019-03-01T05:59:36.596Z,79.32
2019-03-01T06:00:36.568Z,79.83
2019-03-01T06:01:36.597Z,79.42
2019-03-01T06:02:36.533Z,79.73
2019-03-01T06:03:36.548Z,79.42
2019-03-01T06:04:36.511Z,79.32
2019-03-01T06:05:36.504Z,79.59
2019-03-01T06:06:36.529Z,79.42
2019-03-01T06:07:36.474Z,79.69
2019-03-01T06:08:36.477Z,79.42
2019-03-01T06:09:36.452Z,79.28
2019-03-01T06:10:36.443Z,79.42
2019-03-01T06:11:36.488Z,79.52
2019-03-01T06:12:36.423Z,79.63
2019-03-01T06:13:36.425Z,79.59
2019-03-01T06:14:36.400Z,79.63
2019-03-01T06:15:36.391Z,79.52
2019-03-01T06:16:36.403Z,79.63
2019-03-01T06:17:36.378Z,79.52
2019-03-01T06:18:36.352Z,79.42
2019-03-01T06:19:36.342Z,79.46
2019-03-01T06:20:36.342Z,79.32
2019-03-01T06:21:36.328Z,79.11
2019-03-01T06:22:36.337Z,79.42
2019-03-01T06:23:36.343Z,79.32
2019-03-01T06:24:36.293Z,79.63
2019-03-01T06:25:36.278Z,79.22
2019-03-01T06:26:36.280Z,79.42
2019-03-01T06:27:36.274Z,79.46
2019-03-01T06:28:36.251Z,79.36
2019-03-01T06:29:36.239Z,79.63
2019-03-01T06:30:36.224Z,79.52
2019-03-01T06:31:36.221Z,79.63
2019-03-01T06:32:36.226Z,80.14
2019-03-01T06:33:36.199Z,79.83
2019-03-01T06:34:36.280Z,79.73
2019-03-01T06:35:36.169Z,80.35
2019-03-01T06:36:36.160Z,80.38
2019-03-01T06:37:36.181Z,80.45
2019-03-01T06:38:36.135Z,81.00
2019-03-01T06:39:36.128Z,82.54
2019-03-01T06:40:36.116Z,82.95
2019-03-01T06:41:36.098Z,83.98
2019-03-01T06:42:36.089Z,83.77
2019-03-01T06:43:36.111Z,84.28
2019-03-01T06:44:36.088Z,84.90
2019-03-01T06:45:36.061Z,85.21
2019-03-01T06:46:36.052Z,85.52
2019-03-01T06:47:36.035Z,86.03
2019-03-01T06:48:36.027Z,86.24
2019-03-01T06:49:36.043Z,86.68
2019-03-01T06:50:36.006Z,86.89
2019-03-01T06:51:36.019Z,86.85
2019-03-01T06:52:36.011Z,86.44
2019-03-01T06:53:35.971Z,86.68
2019-03-01T06:54:35.959Z,86.68
2019-03-01T06:55:35.972Z,86.79
2019-03-01T06:56:35.954Z,87.20
2019-03-01T06:57:35.929Z,87.51
2019-03-01T06:58:35.917Z,86.89
2019-03-01T06:59:35.907Z,86.79
2019-03-01T07:00:35.920Z,86.89
2019-03-01T07:01:35.935Z,87.30
2019-03-01T07:02:35.878Z,87.61
2019-03-01T07:03:35.857Z,87.82
2019-03-01T07:04:35.850Z,87.51
2019-03-01T07:05:35.868Z,87.16
2019-03-01T07:06:35.824Z,87.30
2019-03-01T07:07:35.815Z,87.40
2019-03-01T07:08:35.809Z,87.20
2019-03-01T07:09:35.795Z,87.51
2019-03-01T07:10:35.798Z,87.20
2019-03-01T07:11:35.789Z,87.51
2019-03-01T07:12:35.770Z,87.26
2019-03-01T07:13:35.754Z,87.57
2019-03-01T07:14:35.741Z,87.05
2019-03-01T07:15:35.786Z,87.16
2019-03-01T07:16:35.716Z,86.85
2019-03-01T07:17:35.718Z,86.65
2019-03-01T07:18:35.699Z,86.75
2019-03-01T07:19:35.746Z,86.54
2019-03-01T07:20:35.678Z,86.54
2019-03-01T07:21:35.708Z,87.05
2019-03-01T07:22:35.658Z,87.46
2019-03-01T07:23:36.997Z,87.30
2019-03-01T07:24:35.631Z,87.26
2019-03-01T07:25:35.622Z,86.58
2019-03-01T07:26:35.645Z,86.89
2019-03-01T07:27:35.600Z,87.10
2019-03-01T07:28:35.634Z,87.67
2019-03-01T07:29:35.590Z,87.88
2019-03-01T07:30:35.566Z,87.51
2019-03-01T07:31:35.605Z,87.51
2019-03-01T07:32:35.562Z,87.37
2019-03-01T07:33:35.539Z,87.05
2019-03-01T07:34:35.520Z,87.05
2019-03-01T07:35:35.512Z,86.75
2019-03-01T07:36:35.561Z,86.65
2019-03-01T07:37:35.520Z,87.22
2019-03-01T07:38:35.479Z,87.22
2019-03-01T07:39:35.476Z,86.60
2019-03-01T07:40:35.456Z,86.40
2019-03-01T07:41:35.480Z,87.32
2019-03-01T07:42:35.458Z,87.12
2019-03-01T07:43:35.427Z,86.60
2019-03-01T07:44:35.484Z,86.81
2019-03-01T07:45:35.454Z,87.73
2019-03-01T07:46:35.416Z,87.94
2019-03-01T07:47:35.420Z,87.43
2019-03-01T07:48:35.368Z,87.37
2019-03-01T07:49:35.368Z,87.53
2019-03-01T07:50:35.348Z,87.84
2019-03-01T07:51:36.042Z,87.32
2019-03-01T07:52:35.333Z,87.43
2019-03-01T07:53:35.667Z,87.63
2019-03-01T07:54:36.302Z,87.32
2019-03-01T07:55:35.318Z,87.84
2019-03-01T07:56:36.908Z,87.46
2019-03-01T07:57:35.334Z,88.39
2019-03-01T07:58:35.260Z,88.45
2019-03-01T07:59:38.318Z,88.29
2019-03-01T08:00:35.247Z,88.59
2019-03-01T08:01:35.259Z,88.35
2019-03-01T08:02:35.964Z,89.37
2019-03-01T08:03:35.224Z,88.45
2019-03-01T08:04:35.226Z,88.56
2019-03-01T08:05:35.584Z,88.66
2019-03-01T08:06:35.191Z,88.76
2019-03-01T08:07:35.162Z,88.66
2019-03-01T08:08:39.052Z,88.86
2019-03-01T08:09:36.158Z,87.73
2019-03-01T08:10:35.135Z,87.63
2019-03-01T08:11:35.158Z,87.90
2019-03-01T08:12:35.124Z,87.73
2019-03-01T08:13:35.102Z,87.43
2019-03-01T08:14:35.097Z,87.38
2019-03-01T08:15:35.098Z,87.28
2019-03-01T08:16:35.069Z,87.38
2019-03-01T08:17:35.103Z,87.28
2019-03-01T08:18:35.055Z,87.18
2019-03-01T08:19:35.034Z,87.49
2019-03-01T08:20:35.033Z,87.18
2019-03-01T08:21:35.010Z,87.28
2019-03-01T08:22:47.317Z,86.77
2019-03-01T08:23:36.080Z,86.87
2019-03-01T08:24:34.985Z,87.38
2019-03-01T08:25:34.964Z,87.14
2019-03-01T08:26:35.011Z,87.28
2019-03-01T08:27:34.965Z,87.65
2019-03-01T08:28:34.933Z,86.63
2019-03-01T08:29:34.961Z,87.34
2019-03-01T08:30:34.917Z,86.63
2019-03-01T08:31:34.898Z,86.01
2019-03-01T08:32:34.963Z,85.71
2019-03-01T08:33:34.895Z,86.11
2019-03-01T08:34:35.347Z,86.52
2019-03-01T08:35:34.876Z,86.63
2019-03-01T08:36:34.878Z,86.73
2019-03-01T08:37:34.835Z,86.52
2019-03-01T08:38:35.006Z,86.63
2019-03-01T08:39:36.668Z,86.48
2019-03-01T08:40:34.807Z,86.18
2019-03-01T08:41:34.819Z,86.58
2019-03-01T08:42:36.424Z,86.28
2019-03-01T08:43:35.795Z,86.18
2019-03-01T08:44:34.761Z,85.66
2019-03-01T08:45:34.753Z,85.25
2019-03-01T08:46:34.777Z,85.87
2019-03-01T08:47:34.728Z,85.93
2019-03-01T08:48:34.909Z,85.25
2019-03-01T08:49:34.705Z,84.60
2019-03-01T08:50:34.703Z,83.88
2019-03-01T08:51:34.686Z,84.50
2019-03-01T08:52:37.197Z,84.33
2019-03-01T08:53:35.687Z,84.84
2019-03-01T08:54:34.665Z,85.01
2019-03-01T08:55:35.617Z,84.50
2019-03-01T08:56:34.642Z,84.29
2019-03-01T08:57:43.824Z,84.50
2019-03-01T08:58:37.581Z,84.50
2019-03-01T08:59:35.622Z,84.15
2019-03-01T09:00:34.583Z,83.58
2019-03-01T09:01:34.575Z,83.78
2019-03-01T09:02:34.619Z,83.84
2019-03-01T09:03:34.558Z,83.54
2019-03-01T09:04:37.876Z,83.84
2019-03-01T09:05:34.529Z,83.95
2019-03-01T09:06:34.519Z,82.55
2019-03-01T09:07:34.559Z,83.58
2019-03-01T09:08:34.519Z,83.68
2019-03-01T09:09:34.495Z,84.25
2019-03-01T09:10:34.533Z,83.54
2019-03-01T09:11:34.466Z,84.01
2019-03-01T09:12:34.472Z,82.68
2019-03-01T09:13:36.073Z,81.96
2019-03-01T09:14:34.448Z,82.78
2019-03-01T09:15:34.423Z,81.56
2019-03-01T09:16:34.411Z,82.07
2019-03-01T09:17:34.435Z,81.96
2019-03-01T09:18:34.386Z,81.96
2019-03-01T09:19:34.377Z,82.17
2019-03-01T09:20:38.417Z,81.65
2019-03-01T09:21:34.367Z,81.31
2019-03-01T09:22:34.349Z,82.23
2019-03-01T09:23:34.352Z,81.72
2019-03-01T09:24:34.321Z,81.01
2019-03-01T09:25:34.319Z,82.43
2019-03-01T09:26:35.623Z,81.41
2019-03-01T09:27:34.325Z,80.19
2019-03-01T09:28:38.441Z,80.29
2019-03-01T09:29:41.410Z,81.01
2019-03-01T09:30:35.262Z,80.49
2019-03-01T09:31:34.242Z,80.69
2019-03-01T09:32:34.877Z,80.94
2019-03-01T09:33:34.228Z,80.02
2019-03-01T09:34:34.220Z,79.71
2019-03-01T09:35:34.233Z,80.63
2019-03-01T09:36:34.193Z,79.82
2019-03-01T09:37:34.209Z,79.50
2019-03-01T09:38:34.178Z,79.41
2019-03-01T09:39:34.162Z,80.02
2019-03-01T09:40:34.149Z,79.71
2019-03-01T09:41:36.527Z,80.12
2019-03-01T09:42:35.186Z,79.50
2019-03-01T09:43:34.112Z,80.39
2019-03-01T09:44:34.592Z,79.10
2019-03-01T09:45:36.558Z,79.50
2019-03-01T09:46:34.084Z,79.71
2019-03-01T09:47:36.933Z,79.50
2019-03-01T09:48:34.087Z,79.30
2019-03-01T09:49:34.049Z,79.50
2019-03-01T09:50:34.578Z,79.61
2019-03-01T09:51:34.024Z,80.43
2019-03-01T09:52:34.011Z,79.98
2019-03-01T09:53:35.165Z,79.16
2019-03-01T09:54:33.999Z,79.68
2019-03-01T09:55:34.825Z,80.29
2019-03-01T09:56:34.001Z,79.78
2019-03-01T09:57:34.005Z,79.37
2019-03-01T09:58:34.033Z,79.33
2019-03-01T09:59:33.950Z,79.16
2019-03-01T10:00:33.931Z,78.86
2019-03-01T10:01:33.930Z,79.37
2019-03-01T10:02:33.908Z,79.16
2019-03-01T10:03:33.911Z,79.23
2019-03-01T10:04:33.920Z,78.61
2019-03-01T10:05:33.886Z,78.82
2019-03-01T10:06:38.066Z,78.00
2019-03-01T10:07:33.923Z,77.29
2019-03-01T10:08:33.844Z,78.31
2019-03-01T10:09:33.861Z,78.20
2019-03-01T10:10:33.815Z,78.61
2019-03-01T10:11:33.811Z,76.94
2019-03-01T10:12:33.808Z,77.25
2019-03-01T10:14:33.813Z,75.62
2019-03-01T10:15:33.765Z,75.62
2019-03-01T10:16:33.752Z,75.82
2019-03-01T10:17:33.740Z,77.15
2019-03-01T10:18:33.739Z,77.25
2019-03-01T10:19:33.748Z,77.15
2019-03-01T10:20:33.707Z,76.33
2019-03-01T10:21:33.697Z,75.78
2019-03-01T10:22:33.708Z,76.43
2019-03-01T10:23:33.684Z,75.21
2019-03-01T10:24:33.701Z,75.41
2019-03-01T10:25:33.657Z,75.31
2019-03-01T10:26:33.645Z,75.10
2019-03-01T10:27:33.630Z,75.62
2019-03-01T10:28:33.675Z,76.64
2019-03-01T10:29:33.606Z,76.23
2019-03-01T10:30:33.615Z,75.41
2019-03-01T10:31:33.596Z,75.31
2019-03-01T10:32:33.573Z,75.62
2019-03-01T10:33:33.571Z,75.41
2019-03-01T10:34:33.572Z,75.31
2019-03-01T10:35:33.548Z,75.51
2019-03-01T10:36:33.551Z,75.51
2019-03-01T10:37:33.526Z,75.10
2019-03-01T10:38:33.505Z,75.41
2019-03-01T10:39:33.536Z,76.12
2019-03-01T10:40:33.488Z,75.82
2019-03-01T10:41:33.483Z,75.92
2019-03-01T10:42:33.462Z,75.92
2019-03-01T10:43:33.460Z,75.62
2019-03-01T10:44:33.462Z,75.62
2019-03-01T10:45:33.482Z,75.82
2019-03-01T10:46:33.436Z,75.17
2019-03-01T10:47:33.414Z,75.17
2019-03-01T10:48:33.397Z,75.17
2019-03-01T10:49:41.006Z,74.46
2019-03-01T10:50:33.396Z,75.27
2019-03-01T10:51:33.365Z,75.37
2019-03-01T10:52:33.353Z,73.84
2019-03-01T10:53:33.357Z,73.74
2019-03-01T10:54:33.329Z,74.05
2019-03-01T10:55:33.362Z,73.94
2019-03-01T10:56:33.312Z,73.84
2019-03-01T10:57:33.301Z,74.35
2019-03-01T10:58:33.292Z,73.74
2019-03-01T10:59:33.325Z,73.74
2019-03-01T11:00:33.273Z,73.40
2019-03-01T11:01:33.264Z,72.52
2019-03-01T11:02:33.242Z,71.15
2019-03-01T11:03:33.234Z,71.67
2019-03-01T11:04:33.261Z,71.67
2019-03-01T11:05:33.461Z,71.87
2019-03-01T11:06:33.207Z,71.36
2019-03-01T11:07:33.193Z,71.19
2019-03-01T11:08:33.189Z,71.09
2019-03-01T11:09:33.171Z,70.98
2019-03-01T11:10:33.175Z,70.98
2019-03-01T11:11:33.172Z,70.37
2019-03-01T11:12:33.141Z,70.47
2019-03-01T11:13:33.129Z,71.39
2019-03-01T11:14:33.115Z,71.29
2019-03-01T11:15:33.134Z,70.57
2019-03-01T11:16:33.098Z,70.27
2019-03-01T11:17:33.082Z,70.17
2019-03-01T11:18:33.076Z,70.27
2019-03-01T11:19:33.079Z,70.17
2019-03-01T11:20:33.061Z,69.15
2019-03-01T11:21:33.074Z,70.78
2019-03-01T11:22:33.033Z,70.06
2019-03-01T11:23:33.013Z,69.65
2019-03-01T11:24:33.015Z,69.32
2019-03-01T11:25:32.999Z,69.65
2019-03-01T11:26:33.001Z,69.86
2019-03-01T11:27:32.982Z,69.15
2019-03-01T11:28:32.959Z,69.45
2019-03-01T11:29:32.946Z,69.86
2019-03-01T11:30:32.949Z,69.73
2019-03-01T11:31:32.956Z,69.96
2019-03-01T11:32:32.923Z,70.06
2019-03-01T11:33:32.919Z,70.06
2019-03-01T11:34:32.903Z,70.06
2019-03-01T11:35:32.886Z,70.17
2019-03-01T11:36:32.905Z,70.57
2019-03-01T11:37:32.859Z,70.88
2019-03-01T11:38:32.857Z,69.89
2019-03-01T11:39:32.850Z,71.09
2019-03-01T11:40:32.828Z,71.09
2019-03-01T11:41:32.840Z,71.09
2019-03-01T11:42:32.822Z,70.57
2019-03-01T11:43:32.792Z,71.09
2019-03-01T11:44:32.801Z,70.37
2019-03-01T11:45:32.772Z,70.37
2019-03-01T11:46:32.763Z,70.68
2019-03-01T11:47:32.775Z,70.57
2019-03-01T11:48:32.738Z,71.63
2019-03-01T11:49:32.729Z,72.04
2019-03-01T11:50:32.720Z,72.28
2019-03-01T11:51:32.702Z,73.20
2019-03-01T11:52:32.738Z,73.94
2019-03-01T11:53:32.686Z,74.76
2019-03-01T11:54:32.680Z,75.27
2019-03-01T11:55:32.665Z,75.07
2019-03-01T11:56:32.664Z,75.99
2019-03-01T11:57:32.675Z,75.59
2019-03-01T11:58:32.632Z,75.79
2019-03-01T11:59:32.621Z,77.01
2019-03-01T12:00:32.605Z,76.50
2019-03-01T12:01:32.592Z,77.94
2019-03-01T12:02:32.617Z,78.86
2019-03-01T12:03:32.577Z,78.69
2019-03-01T12:04:32.562Z,80.43
2019-03-01T12:05:32.595Z,80.74
2019-03-01T12:06:32.546Z,80.53
2019-03-01T12:07:32.553Z,81.49
2019-03-01T12:08:32.539Z,82.41
2019-03-01T12:09:32.512Z,82.51
2019-03-01T12:10:32.492Z,83.95
2019-03-01T12:11:32.495Z,83.33
2019-03-01T12:12:32.531Z,84.15
2019-03-01T12:13:32.471Z,84.15
2019-03-01T12:14:32.483Z,83.84
2019-03-01T12:15:32.441Z,85.58
2019-03-01T12:16:32.429Z,85.99
2019-03-01T12:17:32.456Z,85.34
2019-03-01T12:18:32.420Z,85.96
2019-03-01T12:19:32.431Z,85.58
2019-03-01T12:20:32.415Z,85.44
2019-03-01T12:21:32.373Z,85.44
2019-03-01T12:22:32.367Z,85.96
2019-03-01T12:23:32.379Z,85.44
2019-03-01T12:24:32.348Z,85.61
2019-03-01T12:25:32.354Z,84.99
2019-03-01T12:26:32.328Z,83.76
2019-03-01T12:27:32.372Z,85.20
2019-03-01T12:28:32.300Z,84.28
2019-03-01T12:29:32.352Z,82.48
2019-03-01T12:30:32.274Z,84.11
2019-03-01T12:31:32.281Z,83.56
2019-03-01T12:32:32.285Z,83.70
2019-03-01T12:33:32.243Z,85.10
2019-03-01T12:34:32.245Z,83.60
2019-03-01T12:35:32.241Z,84.72
2019-03-01T12:36:32.213Z,83.81
2019-03-01T12:37:32.225Z,84.01
2019-03-01T12:38:32.195Z,82.48
2019-03-01T12:39:32.176Z,84.22
2019-03-01T12:40:32.181Z,82.98
2019-03-01T12:41:32.177Z,83.76
2019-03-01T12:42:32.154Z,83.66
2019-03-01T12:43:32.135Z,82.75
2019-03-01T12:44:32.134Z,82.34
2019-03-01T12:45:32.146Z,81.93
2019-03-01T12:46:32.101Z,82.64
2019-03-01T12:47:32.094Z,82.64
2019-03-01T12:48:32.103Z,82.50
2019-03-01T12:49:32.066Z,82.95
2019-03-01T12:50:32.083Z,82.91
2019-03-01T12:51:32.059Z,81.88
2019-03-01T12:52:32.038Z,83.52
2019-03-01T12:53:32.059Z,82.50